Time;durP1;ratioP1;P1;durP2;ratioP2;P2;SDS_P1;SDS_P2;PMS_P1;PMS_P2;Temp;Humidity;BMP_temperature;BMP_pressure;BME280_temperature;BME280_humidity;BME280_pressure;Samples;Min_cycle;Max_cycle;Signal;HPM_P1;HPM_P2
2023/09/12 00:01:22;;;;;;;;;;;;;;;25.35;49.97;100925.31;4185008;27;19977;-75
2023/09/12 00:03:24;;;;;;;;;;;;;;;25.33;50.33;100921.06;4193614;27;20389;-75
2023/09/12 00:05:26;;;;;;;;;;;;;;;25.33;50.05;100911.13;4242471;27;20355;-74
2023/09/12 00:07:27;;;;;;;;;;;;;;;25.33;50.17;100923.75;4178806;28;19967;-75
2023/09/12 00:09:29;;;;;;;;;;;;;;;25.32;50.08;100931.00;4240953;27;20276;-75
2023/09/12 00:11:31;;;;;;;;;;;;;;;25.32;50.39;100931.00;4191793;27;19925;-75
2023/09/12 00:13:33;;;;;;;;;;;;;;;25.31;50.20;100932.00;4199953;27;19948;-76
2023/09/12 00:15:34;;;;;;;;;;;;;;;25.31;50.39;100929.31;4249900;27;19977;-74
2023/09/12 00:17:36;;;;;;;;;;;;;;;25.31;50.21;100923.91;4193834;28;20377;-74
2023/09/12 00:19:37;;;;;;;;;;;;;;;25.31;50.25;100928.44;4209101;27;19954;-74
2023/09/12 00:21:40;;;;;;;;;;;;;;;25.31;50.20;100931.13;4242999;27;19923;-74
2023/09/12 00:23:42;;;;;;;;;;;;;;;25.30;50.46;100921.34;4274931;27;20438;-75
2023/09/12 00:25:44;;;;;;;;;;;;;;;25.29;50.21;100920.50;4213187;27;20532;-74
2023/09/12 00:27:45;;;;;;;;;;;;;;;25.29;50.46;100928.59;4282453;27;20014;-75
2023/09/12 00:29:47;;;;;;;;;;;;;;;25.29;50.40;100927.75;4230344;27;20012;-75
2023/09/12 00:31:48;;;;;;;;;;;;;;;25.28;50.14;100921.50;4252772;27;20013;-73
2023/09/12 00:33:50;;;;;;;;;;;;;;;25.28;50.04;100924.19;4277456;27;19922;-74
2023/09/12 00:35:51;;;;;;;;;;;;;;;25.27;50.30;100930.56;4211468;27;19924;-73
2023/09/12 00:37:53;;;;;;;;;;;;;;;25.27;50.29;100933.25;4282300;27;19923;-75
2023/09/12 00:39:55;;;;;;;;;;;;;;;25.27;50.50;100941.34;4253201;27;19931;-74
2023/09/12 00:42:01;;;;;;;;;;;;;;;25.26;50.35;100931.56;4239690;27;19927;-74
2023/09/12 00:44:03;;;;;;;;;;;;;;;25.26;50.29;100928.03;4282428;27;20010;-74
2023/09/12 00:46:04;;;;;;;;;;;;;;;25.25;50.30;100932.59;4253335;27;19923;-75
2023/09/12 00:48:07;;;;;;;;;;;;;;;25.25;50.41;100935.28;4177534;28;19929;-74
2023/09/12 00:50:09;;;;;;;;;;;;;;;25.24;50.55;100925.50;4203230;27;19993;-75
2023/09/12 00:52:12;;;;;;;;;;;;;;;25.25;50.24;100927.19;4231760;27;19973;-74
2023/09/12 00:54:18;;;;;;;;;;;;;;;25.23;50.23;100926.47;4179152;28;19928;-74
2023/09/12 00:56:20;;;;;;;;;;;;;;;25.24;50.29;100921.94;4255639;27;19975;-74
2023/09/12 00:58:22;;;;;;;;;;;;;;;25.23;50.09;100918.41;4178786;27;19929;-74
2023/09/12 01:00:24;;;;;;;;;;;;;;;25.23;50.56;100909.50;4197986;27;19928;-75
2023/09/12 01:02:25;;;;;;;;;;;;;;;25.22;50.36;100915.88;4236954;27;19993;-75
2023/09/12 01:04:27;;;;;;;;;;;;;;;25.21;50.34;100917.69;4178554;28;20027;-74
2023/09/12 01:06:31;;;;;;;;;;;;;;;25.20;50.07;100924.94;4245516;27;20021;-75
2023/09/12 01:08:34;;;;;;;;;;;;;;;25.20;50.33;100911.47;4186705;27;19948;-75
2023/09/12 01:10:36;;;;;;;;;;;;;;;25.22;50.26;100915.88;4187337;27;19956;-75
2023/09/12 01:12:38;;;;;;;;;;;;;;;25.20;50.65;100919.56;4232167;27;19925;-74
2023/09/12 01:14:40;;;;;;;;;;;;;;;25.19;50.34;100917.00;4195439;28;19933;-74
2023/09/12 01:16:41;;;;;;;;;;;;;;;25.20;50.33;100922.25;4200644;27;19931;-74
2023/09/12 01:18:45;;;;;;;;;;;;;;;25.19;50.50;100919.72;4193819;28;20319;-74
2023/09/12 01:21:10;;;;;;;;;;;;;;;25.18;50.67;100913.47;4198762;27;20402;-74
2023/09/12 01:23:15;;;;;;;;;;;;;;;25.17;50.41;100917.13;4186189;28;19933;-74
2023/09/12 01:25:36;;;;;;;;;;;;;;;25.17;50.59;100914.44;4195015;28;19929;-74
2023/09/12 01:27:38;;;;;;;;;;;;;;;25.16;50.46;100915.44;4200090;27;20301;-74
2023/09/12 01:29:42;;;;;;;;;;;;;;;25.08;50.72;100890.25;4282445;27;20447;-74
2023/09/12 01:31:45;;;;;;;;;;;;;;;25.14;50.62;100905.81;4247427;27;20374;-73
2023/09/12 01:33:47;;;;;;;;;;;;;;;25.14;50.42;100900.44;4241170;27;19923;-74
2023/09/12 01:35:49;;;;;;;;;;;;;;;25.14;50.65;100906.69;4280527;27;19923;-74
2023/09/12 01:37:50;;;;;;;;;;;;;;;25.14;50.78;100908.50;4205724;27;19931;-74
2023/09/12 01:39:58;;;;;;;;;;;;;;;25.13;50.29;100909.50;4282355;27;19978;-74
2023/09/12 01:41:59;;;;;;;;;;;;;;;25.13;50.51;100915.75;4251984;27;19925;-74
2023/09/12 01:44:02;;;;;;;;;;;;;;;25.08;50.82;100906.41;4235456;27;20007;-74
2023/09/12 01:46:03;;;;;;;;;;;;;;;25.12;50.73;100922.13;4282520;27;19975;-73
2023/09/12 01:48:06;;;;;;;;;;;;;;;25.12;50.39;100924.81;4254640;27;19995;-74
2023/09/12 01:50:08;;;;;;;;;;;;;;;25.13;50.43;100920.25;4178401;28;20016;-73
2023/09/12 01:52:10;;;;;;;;;;;;;;;25.12;50.83;100915.91;4204188;27;19927;-73
2023/09/12 01:54:20;;;;;;;;;;;;;;;25.11;50.73;100920.41;4232960;27;19923;-74
2023/09/12 01:56:22;;;;;;;;;;;;;;;25.10;50.51;100915.19;4263831;27;19927;-74
2023/09/12 01:58:25;;;;;;;;;;;;;;;25.10;50.46;100917.88;4204297;27;20389;-73
2023/09/12 02:00:27;;;;;;;;;;;;;;;25.09;50.68;100916.19;4177070;28;19983;-74
2023/09/12 02:02:28;;;;;;;;;;;;;;;25.07;50.83;100921.72;4203777;27;19998;-74
2023/09/12 02:04:35;;;;;;;;;;;;;;;25.07;50.53;100924.41;4228552;27;19929;-74
2023/09/12 02:06:41;;;;;;;;;;;;;;;25.07;50.57;100924.41;4282168;27;20367;-74
2023/09/12 02:08:43;;;;;;;;;;;;;;;25.06;50.86;100921.88;4205176;27;19925;-74
2023/09/12 02:10:45;;;;;;;;;;;;;;;25.06;50.60;100929.94;4280764;27;20383;-74
2023/09/12 02:12:47;;;;;;;;;;;;;;;25.05;50.68;100942.53;4263836;27;19934;-75
2023/09/12 02:14:48;;;;;;;;;;;;;;;25.05;50.78;100931.75;4222492;27;19923;-74
2023/09/12 02:16:55;;;;;;;;;;;;;;;25.04;50.68;100933.63;4214031;27;19931;-75
2023/09/12 02:19:01;;;;;;;;;;;;;;;25.03;50.72;100921.16;4203457;27;19980;-75
2023/09/12 02:21:03;;;;;;;;;;;;;;;25.02;50.63;100930.22;4277910;27;19983;-75
2023/09/12 02:23:04;;;;;;;;;;;;;;;25.02;50.75;100921.31;4266213;27;19927;-75
2023/09/12 02:25:08;;;;;;;;;;;;;;;25.01;50.63;100914.22;4219501;27;19974;-75
2023/09/12 02:27:14;;;;;;;;;;;;;;;25.01;50.62;100919.59;4281834;27;19938;-75
2023/09/12 02:29:16;;;;;;;;;;;;;;;25.00;50.70;100921.41;4212372;27;19932;-75
2023/09/12 02:31:17;;;;;;;;;;;;;;;24.99;50.75;100927.78;4271977;27;19926;-75
2023/09/12 02:33:19;;;;;;;;;;;;;;;24.99;50.97;100938.56;4254484;27;19979;-75
2023/09/12 02:35:20;;;;;;;;;;;;;;;24.98;50.66;100933.31;4224651;27;20360;-75
2023/09/12 02:37:22;;;;;;;;;;;;;;;24.97;50.69;100928.94;4281623;27;19926;-75
2023/09/12 02:39:24;;;;;;;;;;;;;;;24.98;50.79;100925.25;4223357;27;19925;-75
2023/09/12 02:41:26;;;;;;;;;;;;;;;24.96;50.84;100914.66;4261479;27;19975;-74
2023/09/12 02:43:28;;;;;;;;;;;;;;;24.95;50.97;100915.63;4272892;27;19928;-75
2023/09/12 02:45:29;;;;;;;;;;;;;;;24.96;51.05;100924.53;4211008;27;20370;-75
2023/09/12 02:47:31;;;;;;;;;;;;;;;24.95;50.74;100928.25;4262577;27;20365;-75
2023/09/12 02:49:33;;;;;;;;;;;;;;;24.95;50.84;100921.00;4233723;27;19925;-75
2023/09/12 02:51:38;;;;;;;;;;;;;;;24.94;50.83;100919.31;4251435;27;19971;-75
2023/09/12 02:53:39;;;;;;;;;;;;;;;24.93;50.92;100920.31;4272471;27;19940;-75
2023/09/12 02:55:41;;;;;;;;;;;;;;;24.93;51.15;100916.78;4210947;27;19937;-75
2023/09/12 02:57:43;;;;;;;;;;;;;;;24.93;51.13;100916.78;4280838;27;19980;-75
2023/09/12 02:59:45;;;;;;;;;;;;;;;24.91;50.96;100902.59;4241245;27;19925;-75
2023/09/12 03:01:46;;;;;;;;;;;;;;;24.91;50.89;100903.47;4243442;27;19923;-75
2023/09/12 03:03:53;;;;;;;;;;;;;;;24.91;50.87;100910.69;4272503;27;19927;-75
2023/09/12 03:06:00;;;;;;;;;;;;;;;24.90;51.19;100899.09;4210916;27;20377;-75
2023/09/12 03:08:03;;;;;;;;;;;;;;;24.90;51.17;100893.69;4280635;27;20302;-76
2023/09/12 03:10:05;;;;;;;;;;;;;;;24.90;51.23;100901.78;4242119;27;20346;-75
2023/09/12 03:12:06;;;;;;;;;;;;;;;24.88;51.15;100899.19;4244990;27;19922;-75
2023/09/12 03:14:08;;;;;;;;;;;;;;;24.88;51.13;100912.66;4279709;27;19931;-75
2023/09/12 03:16:14;;;;;;;;;;;;;;;24.87;50.75;100912.81;4193347;28;19925;-75
2023/09/12 03:18:16;;;;;;;;;;;;;;;24.86;50.90;100911.09;4195983;28;20282;-75
2023/09/12 03:20:18;;;;;;;;;;;;;;;24.87;51.33;100919.06;4219991;27;20311;-75
2023/09/12 03:22:19;;;;;;;;;;;;;;;24.85;51.16;100915.66;4225214;27;19924;-75
2023/09/12 03:24:24;;;;;;;;;;;;;;;24.84;51.21;100918.50;4181223;27;20444;-75
2023/09/12 03:26:26;;;;;;;;;;;;;;;24.83;51.25;100916.78;4257054;27;19923;-75
2023/09/12 03:28:28;;;;;;;;;;;;;;;24.82;51.40;100921.28;4178880;28;19929;-76
2023/09/12 03:30:29;;;;;;;;;;;;;;;24.82;51.23;100926.69;4204836;27;19925;-74
2023/09/12 03:32:31;;;;;;;;;;;;;;;24.82;50.88;100920.47;4233076;27;19928;-75
2023/09/12 03:34:33;;;;;;;;;;;;;;;24.82;51.03;100924.00;4180186;28;20007;-75
2023/09/12 03:36:34;;;;;;;;;;;;;;;24.82;51.16;100928.53;4252372;27;20329;-75
2023/09/12 03:38:36;;;;;;;;;;;;;;;24.82;51.15;100928.53;4184668;27;20270;-74
2023/09/12 03:40:37;;;;;;;;;;;;;;;24.82;51.30;100936.59;4193812;27;20059;-74
2023/09/12 03:42:39;;;;;;;;;;;;;;;24.82;51.15;100936.59;4231923;27;19925;-74
2023/09/12 03:44:43;;;;;;;;;;;;;;;24.80;51.22;100936.75;4196818;28;19925;-74
2023/09/12 03:46:45;;;;;;;;;;;;;;;24.80;51.03;100936.75;4245514;27;20022;-74
2023/09/12 03:48:47;;;;;;;;;;;;;;;24.81;51.38;100940.28;4189353;27;19925;-75
2023/09/12 03:50:49;;;;;;;;;;;;;;;24.80;51.23;100936.75;4200031;27;19936;-74
2023/09/12 03:52:56;;;;;;;;;;;;;;;24.80;51.44;100943.97;4179263;28;20087;-74
2023/09/12 03:55:00;;;;;;;;;;;;;;;24.79;51.04;100939.56;4196297;28;20356;-75
2023/09/12 03:57:02;;;;;;;;;;;;;;;24.78;51.04;100936.03;4242583;27;19937;-75
2023/09/12 03:59:03;;;;;;;;;;;;;;;24.78;51.21;100937.88;4196166;27;20362;-74
2023/09/12 04:01:05;;;;;;;;;;;;;;;24.78;51.42;100937.88;4188254;27;19923;-75
2023/09/12 04:03:06;;;;;;;;;;;;;;;24.77;51.38;100936.19;4250159;27;19925;-75
2023/09/12 04:05:09;;;;;;;;;;;;;;;24.77;51.38;100944.25;4179683;28;20015;-75
2023/09/12 04:07:10;;;;;;;;;;;;;;;24.77;51.33;100955.03;4229368;27;19930;-75
2023/09/12 04:09:12;;;;;;;;;;;;;;;24.77;51.10;100952.31;4200784;27;19931;-75
2023/09/12 04:11:13;;;;;;;;;;;;;;;24.76;51.50;100950.63;4202041;27;19931;-75
2023/09/12 04:13:15;;;;;;;;;;;;;;;24.75;51.35;100952.44;4249852;27;19947;-75
2023/09/12 04:15:17;;;;;;;;;;;;;;;24.75;51.20;100947.06;4179705;28;20445;-74
2023/09/12 04:17:18;;;;;;;;;;;;;;;24.75;51.25;100949.75;4199682;27;19936;-75
2023/09/12 04:19:23;;;;;;;;;;;;;;;24.75;51.08;100952.44;4249565;27;20001;-75
2023/09/12 04:21:25;;;;;;;;;;;;;;;24.73;51.33;100941.00;4276500;27;19922;-75
2023/09/12 04:23:26;;;;;;;;;;;;;;;24.73;51.22;100932.94;4211582;27;19925;-75
2023/09/12 04:25:28;;;;;;;;;;;;;;;24.72;51.18;100932.06;4283731;27;20160;-75
2023/09/12 04:27:30;;;;;;;;;;;;;;;24.72;51.49;100940.13;4252261;27;20417;-75
2023/09/12 04:29:35;;;;;;;;;;;;;;;24.72;51.08;100942.00;4235542;27;20004;-74
2023/09/12 04:31:36;;;;;;;;;;;;;;;24.71;51.40;100951.03;4282940;27;19923;-74
2023/09/12 04:33:38;;;;;;;;;;;;;;;24.71;51.42;100951.03;4205145;27;19932;-74
2023/09/12 04:35:40;;;;;;;;;;;;;;;24.71;51.25;100951.03;4283477;27;19977;-74
2023/09/12 04:37:41;;;;;;;;;;;;;;;24.70;51.36;100949.34;4260205;27;20391;-74
2023/09/12 04:39:43;;;;;;;;;;;;;;;24.69;51.24;100943.13;4227971;27;19975;-74
2023/09/12 04:41:45;;;;;;;;;;;;;;;24.69;51.40;100951.19;4283213;27;20329;-74
2023/09/12 04:43:47;;;;;;;;;;;;;;;24.70;51.34;100952.03;4212205;27;19925;-74
2023/09/12 04:45:49;;;;;;;;;;;;;;;24.69;51.25;100950.31;4276499;27;19962;-74
2023/09/12 04:47:50;;;;;;;;;;;;;;;24.69;51.21;100950.31;4269972;27;20288;-75
2023/09/12 04:49:52;;;;;;;;;;;;;;;24.69;51.46;100959.25;4218235;27;20006;-75
2023/09/12 04:51:54;;;;;;;;;;;;;;;24.68;51.36;100964.75;4283352;27;19922;-75
2023/09/12 04:53:56;;;;;;;;;;;;;;;24.67;51.18;100969.31;4222463;27;20293;-75
2023/09/12 04:55:57;;;;;;;;;;;;;;;24.68;51.04;100962.06;4265556;27;19970;-75
2023/09/12 04:57:59;;;;;;;;;;;;;;;24.67;51.27;100965.78;4273500;27;19960;-75
2023/09/12 05:00:01;;;;;;;;;;;;;;;24.66;51.22;100966.75;4212376;27;19930;-74
2023/09/12 05:02:03;;;;;;;;;;;;;;;24.66;51.45;100964.06;4264513;27;20301;-75
2023/09/12 05:04:04;;;;;;;;;;;;;;;24.65;51.37;100960.47;4232584;27;19925;-74
2023/09/12 05:06:06;;;;;;;;;;;;;;;24.66;51.33;100956.00;4255742;27;19967;-75
2023/09/12 05:08:08;;;;;;;;;;;;;;;24.64;51.35;100952.56;4273278;27;20253;-75
2023/09/12 05:10:09;;;;;;;;;;;;;;;24.64;51.33;100955.25;4211950;27;19926;-75
2023/09/12 05:12:11;;;;;;;;;;;;;;;24.64;51.30;100955.25;4283076;27;19927;-75
2023/09/12 05:14:13;;;;;;;;;;;;;;;24.64;51.26;100955.25;4243131;27;19925;-75
2023/09/12 05:16:14;;;;;;;;;;;;;;;24.63;51.49;100949.03;4223939;27;19924;-75
2023/09/12 05:18:16;;;;;;;;;;;;;;;24.62;51.53;100944.66;4195751;27;19932;-75
2023/09/12 05:20:18;;;;;;;;;;;;;;;24.62;51.22;100955.41;4209005;27;20331;-75
2023/09/12 05:22:20;;;;;;;;;;;;;;;24.62;51.33;100968.84;4282679;27;20471;-75
2023/09/12 05:24:21;;;;;;;;;;;;;;;24.61;51.23;100975.22;4253306;27;20382;-75
2023/09/12 05:26:23;;;;;;;;;;;;;;;24.61;51.33;100972.53;4233986;27;19927;-75
2023/09/12 05:28:25;;;;;;;;;;;;;;;24.60;51.56;100978.06;4281870;27;20414;-75
2023/09/12 05:30:26;;;;;;;;;;;;;;;24.61;51.23;100979.75;4205586;27;19924;-75
2023/09/12 05:32:28;;;;;;;;;;;;;;;24.61;51.41;100985.13;4281635;27;19983;-75
2023/09/12 05:34:30;;;;;;;;;;;;;;;24.60;51.48;100981.56;4263564;27;19933;-75
2023/09/12 05:36:31;;;;;;;;;;;;;;;24.60;51.36;100984.25;4223315;27;19929;-75
2023/09/12 05:38:33;;;;;;;;;;;;;;;24.59;51.72;100979.88;4281041;27;19968;-75
2023/09/12 05:40:35;;;;;;;;;;;;;;;24.59;51.45;100979.03;4208630;27;20364;-76
2023/09/12 05:42:39;;;;;;;;;;;;;;;24.58;51.29;100974.66;4272415;27;20303;-75
2023/09/12 05:44:42;;;;;;;;;;;;;;;24.57;51.37;100968.44;4271887;27;19923;-75
2023/09/12 05:46:47;;;;;;;;;;;;;;;24.56;51.63;100970.25;4215878;27;20284;-75
2023/09/12 05:48:49;;;;;;;;;;;;;;;24.56;51.49;100967.56;4281387;27;19975;-75
2023/09/12 05:50:50;;;;;;;;;;;;;;;24.56;51.63;100974.78;4220347;27;19933;-75
2023/09/12 05:52:52;;;;;;;;;;;;;;;24.55;51.22;100976.59;4265997;27;19965;-75
2023/09/12 05:54:53;;;;;;;;;;;;;;;24.55;51.21;100982.00;4272976;27;19976;-76
2023/09/12 05:56:55;;;;;;;;;;;;;;;24.55;51.72;100978.47;4211739;27;20371;-75
2023/09/12 05:58:56;;;;;;;;;;;;;;;24.54;51.40;100971.38;4281025;27;19927;-75
2023/09/12 06:00:58;;;;;;;;;;;;;;;24.54;51.59;100971.38;4231883;27;19925;-75
2023/09/12 06:03:00;;;;;;;;;;;;;;;24.53;51.47;100975.06;4254620;27;19926;-75
2023/09/12 06:05:02;;;;;;;;;;;;;;;24.54;51.59;100982.13;4272972;27;19930;-76
2023/09/12 06:07:04;;;;;;;;;;;;;;;24.53;51.26;100981.31;4211622;27;19993;-75
2023/09/12 06:09:06;;;;;;;;;;;;;;;24.53;51.29;100985.81;4280440;27;19923;-75
2023/09/12 06:11:12;;;;;;;;;;;;;;;24.53;51.40;100984.00;4237086;27;19925;-75
2023/09/12 06:13:14;;;;;;;;;;;;;;;24.54;51.57;100995.59;4236085;27;19965;-74
2023/09/12 06:15:16;;;;;;;;;;;;;;;24.54;51.53;101001.78;4273103;27;20364;-75
2023/09/12 06:17:17;;;;;;;;;;;;;;;24.52;51.67;100990.34;4209042;27;19924;-74
2023/09/12 06:19:19;;;;;;;;;;;;;;;24.52;51.48;100990.34;4176916;28;20290;-75
2023/09/12 06:21:21;;;;;;;;;;;;;;;24.52;51.14;100998.41;4211747;27;19923;-74
2023/09/12 06:23:27;;;;;;;;;;;;;;;24.52;51.35;100997.56;4216940;27;20293;-74
2023/09/12 06:25:29;;;;;;;;;;;;;;;24.52;51.59;101003.78;4181573;27;19924;-75
2023/09/12 06:27:31;;;;;;;;;;;;;;;24.51;51.72;100996.72;4251213;27;19922;-74
2023/09/12 06:29:33;;;;;;;;;;;;;;;24.51;51.35;100994.03;4176715;28;20316;-76
2023/09/12 06:31:38;;;;;;;;;;;;;;;24.50;51.58;100995.00;4205431;27;19991;-75
2023/09/12 06:33:39;;;;;;;;;;;;;;;24.50;51.38;100989.63;4224598;27;19929;-74
2023/09/12 06:35:41;;;;;;;;;;;;;;;24.50;51.53;100991.47;4177880;28;19932;-74
2023/09/12 06:37:44;;;;;;;;;;;;;;;24.49;51.23;100996.00;4255240;27;20113;-75
2023/09/12 06:39:49;;;;;;;;;;;;;;;24.49;51.51;100998.69;4176837;28;19947;-75
2023/09/12 06:41:50;;;;;;;;;;;;;;;24.49;51.62;101003.22;4202930;27;20302;-75
2023/09/12 06:43:52;;;;;;;;;;;;;;;24.49;51.59;101006.75;4228274;27;20380;-75
2023/09/12 06:45:54;;;;;;;;;;;;;;;24.48;51.47;100999.66;4281264;27;19929;-75
2023/09/12 06:47:58;;;;;;;;;;;;;;;24.48;51.30;100993.44;4210047;27;19995;-75
2023/09/12 06:50:03;;;;;;;;;;;;;;;24.48;51.79;100985.38;4279173;27;19923;-75
2023/09/12 06:52:06;;;;;;;;;;;;;;;24.47;51.60;100984.53;4261340;27;20013;-75
2023/09/12 06:54:08;;;;;;;;;;;;;;;24.47;51.32;100989.06;4223794;27;20021;-75
2023/09/12 06:56:11;;;;;;;;;;;;;;;24.48;51.73;100990.75;4281654;27;19927;-75
2023/09/12 06:58:13;;;;;;;;;;;;;;;24.47;51.37;100999.81;4212657;27;19998;-75
2023/09/12 07:00:14;;;;;;;;;;;;;;;24.47;51.31;100995.28;4271124;27;19975;-75
2023/09/12 07:02:18;;;;;;;;;;;;;;;24.47;51.61;101005.19;4270983;27;19922;-75
2023/09/12 07:04:20;;;;;;;;;;;;;;;24.47;51.60;101003.34;4215526;27;19926;-75
2023/09/12 07:06:22;;;;;;;;;;;;;;;24.46;51.42;100998.97;4281069;27;20047;-75
2023/09/12 07:08:24;;;;;;;;;;;;;;;24.45;51.46;100997.28;4220305;27;19952;-75
2023/09/12 07:10:27;;;;;;;;;;;;;;;24.46;51.42;101000.78;4264891;27;19929;-74
2023/09/12 07:12:29;;;;;;;;;;;;;;;24.46;51.65;101001.66;4272481;27;19962;-75
2023/09/12 07:14:31;;;;;;;;;;;;;;;24.45;51.47;101002.66;4210867;27;20025;-75
2023/09/12 07:16:33;;;;;;;;;;;;;;;24.45;51.78;101004.47;4229547;27;19945;-75
2023/09/12 07:18:34;;;;;;;;;;;;;;;24.45;51.64;101010.72;4206779;27;19939;-76
2023/09/12 07:20:36;;;;;;;;;;;;;;;24.44;51.53;101014.38;4254278;27;19922;-75
2023/09/12 07:22:39;;;;;;;;;;;;;;;24.44;51.45;101017.06;4272325;27;19929;-75
2023/09/12 07:24:40;;;;;;;;;;;;;;;24.43;51.51;101015.38;4210859;27;19934;-75
2023/09/12 07:26:42;;;;;;;;;;;;;;;24.43;51.28;101012.69;4281194;27;20009;-76
2023/09/12 07:28:44;;;;;;;;;;;;;;;24.43;51.65;101018.06;4238546;27;19951;-76
2023/09/12 07:30:46;;;;;;;;;;;;;;;24.40;51.49;101016.50;4245551;27;19923;-76
2023/09/12 07:32:48;;;;;;;;;;;;;;;24.41;51.64;101022.72;4273482;27;19929;-75
2023/09/12 07:34:50;;;;;;;;;;;;;;;24.40;51.79;101015.66;4247105;27;19933;-75
2023/09/12 07:36:51;;;;;;;;;;;;;;;24.40;51.47;101016.50;4177459;28;19956;-75
2023/09/12 07:38:53;;;;;;;;;;;;;;;24.39;51.47;101008.59;4207686;27;20334;-75
2023/09/12 07:40:54;;;;;;;;;;;;;;;24.39;51.46;101014.78;4223012;27;19925;-75
2023/09/12 07:42:56;;;;;;;;;;;;;;;24.40;51.44;101015.66;4177130;28;20405;-75
2023/09/12 07:44:57;;;;;;;;;;;;;;;24.40;51.58;101018.34;4255375;27;19922;-74
2023/09/12 07:46:59;;;;;;;;;;;;;;;24.40;51.40;101021.88;4177074;28;19925;-75
2023/09/12 07:49:00;;;;;;;;;;;;;;;24.40;51.77;101026.41;4201857;27;19930;-76
2023/09/12 07:51:11;;;;;;;;;;;;;;;24.39;51.80;101025.56;4224822;27;20246;-75
2023/09/12 07:53:12;;;;;;;;;;;;;;;24.39;51.27;101020.16;4281111;27;19977;-76
2023/09/12 07:55:14;;;;;;;;;;;;;;;24.40;51.58;101023.72;4205369;27;19925;-75
2023/09/12 07:57:15;;;;;;;;;;;;;;;24.39;51.60;101022.03;4278935;27;19923;-75
2023/09/12 07:59:17;;;;;;;;;;;;;;;24.38;51.43;101017.63;4249284;27;20407;-75
2023/09/12 08:01:19;;;;;;;;;;;;;;;24.39;51.44;101020.16;4232890;27;19948;-75
2023/09/12 08:03:20;;;;;;;;;;;;;;;24.39;51.51;101022.03;4284093;27;19949;-75
2023/09/12 08:05:22;;;;;;;;;;;;;;;24.38;51.56;101020.31;4218691;27;19929;-76
2023/09/12 08:07:24;;;;;;;;;;;;;;;24.38;51.42;101023.84;4270759;27;20390;-75
2023/09/12 08:09:45;;;;;;;;;;;;;;;24.39;51.41;101022.03;4273767;27;19934;-75
2023/09/12 08:11:47;;;;;;;;;;;;;;;24.39;51.62;101014.78;4187607;28;20376;-76
2023/09/12 08:13:49;;;;;;;;;;;;;;;24.39;51.60;101020.16;4196019;28;19935;-76
2023/09/12 08:15:50;;;;;;;;;;;;;;;24.38;51.56;101023.84;4248690;27;19927;-76
2023/09/12 08:17:54;;;;;;;;;;;;;;;24.39;51.32;101022.03;4195973;28;19924;-76
2023/09/12 08:19:56;;;;;;;;;;;;;;;24.37;51.76;101022.13;4202537;27;19925;-76
2023/09/12 08:21:57;;;;;;;;;;;;;;;24.38;51.26;101023.84;4242291;27;19935;-75
2023/09/12 08:23:59;;;;;;;;;;;;;;;24.37;51.35;101027.50;4179607;28;19979;-75
2023/09/12 08:26:00;;;;;;;;;;;;;;;24.37;51.33;101030.19;4229547;27;19931;-75
2023/09/12 08:28:02;;;;;;;;;;;;;;;24.36;51.30;101031.22;4195200;27;20061;-75
2023/09/12 08:30:07;;;;;;;;;;;;;;;24.36;51.30;101041.97;4185743;27;19929;-75
2023/09/12 08:32:08;;;;;;;;;;;;;;;24.36;51.50;101039.28;4223413;27;19967;-67
2023/09/12 08:34:10;;;;;;;;;;;;;;;24.32;51.77;101040.53;4264541;27;19965;-60
2023/09/12 08:36:12;;;;;;;;;;;;;;;24.33;52.96;101036.00;4209819;27;19956;-63
2023/09/12 08:38:13;;;;;;;;;;;;;;;24.33;52.71;101039.53;4264207;27;19926;-59
2023/09/12 08:40:15;;;;;;;;;;;;;;;24.34;53.22;101041.25;4210103;27;19923;-58
2023/09/12 08:42:17;;;;;;;;;;;;;;;24.35;52.63;101037.56;4212080;27;20399;-57
2023/09/12 08:44:19;;;;;;;;;;;;;;;24.34;52.65;101033.19;4213531;27;19931;-58
2023/09/12 08:46:22;;;;;;;;;;;;;;;24.34;52.66;101035.00;4227867;27;19977;-58
2023/09/12 08:48:24;;;;;;;;;;;;;;;24.32;52.63;101037.84;4211629;27;19925;-60
2023/09/12 08:50:30;;;;;;;;;;;;;;;24.32;52.96;101029.78;4186261;27;19954;-59
2023/09/12 08:52:32;;;;;;;;;;;;;;;24.34;52.97;101037.69;4220749;27;20058;-59
2023/09/12 08:54:34;;;;;;;;;;;;;;;24.35;52.49;101037.56;4197277;27;19976;-60
2023/09/12 08:56:39;;;;;;;;;;;;;;;24.35;52.52;101037.56;4211083;27;19998;-60
2023/09/12 08:58:40;;;;;;;;;;;;;;;24.36;52.79;101041.97;4233850;27;19927;-61
2023/09/12 09:00:42;;;;;;;;;;;;;;;24.37;52.69;101042.81;4236384;27;19928;-60
2023/09/12 09:02:44;;;;;;;;;;;;;;;24.38;52.80;101034.59;4211517;27;19947;-61
2023/09/12 09:04:47;;;;;;;;;;;;;;;24.38;52.48;101037.28;4264419;27;19923;-61
2023/09/12 09:06:54;;;;;;;;;;;;;;;24.37;52.53;101034.75;4247054;27;20366;-60
2023/09/12 09:08:56;;;;;;;;;;;;;;;24.37;52.37;101030.19;4221953;27;19925;-58
2023/09/12 09:10:59;;;;;;;;;;;;;;;24.37;52.60;101035.59;4185584;27;19931;-59
2023/09/12 09:13:00;;;;;;;;;;;;;;;24.39;52.40;101030.94;4215760;27;20049;-60
2023/09/12 09:15:21;;;;;;;;;;;;;;;24.40;52.33;101038.00;4282506;27;19927;-59
2023/09/12 09:17:23;;;;;;;;;;;;;;;24.38;52.75;101028.38;4219102;27;19925;-61
2023/09/12 09:19:41;;;;;;;;;;;;;;;24.36;52.37;101033.03;4190162;28;19928;-61
2023/09/12 09:21:43;;;;;;;;;;;;;;;24.38;52.48;101039.13;4199411;27;19959;-61
2023/09/12 09:23:46;;;;;;;;;;;;;;;24.39;52.72;101035.47;4248765;27;19925;-59
2023/09/12 09:25:52;;;;;;;;;;;;;;;24.31;52.40;101027.22;4177379;28;19929;-60
2023/09/12 09:27:54;;;;;;;;;;;;;;;24.38;52.34;101039.97;4230262;27;19926;-61
2023/09/12 09:29:55;;;;;;;;;;;;;;;24.37;52.28;101032.06;4205432;27;19929;-61
2023/09/12 09:31:59;;;;;;;;;;;;;;;24.35;52.34;101028.63;4190063;27;20067;-60
2023/09/12 09:34:03;;;;;;;;;;;;;;;24.35;52.68;101029.50;4198756;27;19979;-59
2023/09/12 09:36:06;;;;;;;;;;;;;;;24.36;52.27;101031.22;4178266;28;19955;-60
2023/09/12 09:38:09;;;;;;;;;;;;;;;24.36;52.62;101033.03;4208815;27;19925;-61
2023/09/12 09:40:10;;;;;;;;;;;;;;;24.36;52.26;101033.03;4251416;27;20295;-58
2023/09/12 09:42:12;;;;;;;;;;;;;;;24.35;52.42;101029.50;4273155;27;19923;-60
2023/09/12 09:44:13;;;;;;;;;;;;;;;24.35;52.51;101031.34;4215721;27;19960;-60
2023/09/12 09:46:15;;;;;;;;;;;;;;;24.34;52.60;101032.31;4177903;28;19985;-60
2023/09/12 09:48:18;;;;;;;;;;;;;;;24.36;52.70;101028.53;4215502;27;19926;-58
2023/09/12 09:50:19;;;;;;;;;;;;;;;24.37;52.43;101032.06;4216672;27;19931;-58
2023/09/12 09:52:27;;;;;;;;;;;;;;;24.38;52.19;101033.75;4181335;27;20373;-59
2023/09/12 09:54:29;;;;;;;;;;;;;;;24.39;52.49;101035.47;4200684;27;19931;-58
2023/09/12 09:56:32;;;;;;;;;;;;;;;24.38;52.37;101039.13;4282307;27;19972;-58
2023/09/12 09:58:33;;;;;;;;;;;;;;;24.37;52.54;101048.19;4248452;27;20402;-58
2023/09/12 10:00:37;;;;;;;;;;;;;;;24.36;52.74;101063.47;4183713;27;19931;-58
2023/09/12 10:02:40;;;;;;;;;;;;;;;24.37;52.97;101075.06;4190107;27;19967;-63
2023/09/12 10:04:43;;;;;;;;;;;;;;;24.37;53.08;101083.97;4208534;27;20389;-57
2023/09/12 10:06:47;;;;;;;;;;;;;;;24.35;52.97;101094.03;4191182;28;19947;-57
2023/09/12 10:08:52;;;;;;;;;;;;;;;24.37;53.08;101099.25;4211150;27;20039;-61
2023/09/12 10:10:54;;;;;;;;;;;;;;;24.36;53.20;101092.19;4225355;27;19933;-60
2023/09/12 10:12:57;;;;;;;;;;;;;;;24.34;53.49;101099.50;4193853;28;19931;-57
2023/09/12 10:15:00;;;;;;;;;;;;;;;24.32;53.38;101107.72;4203636;27;20371;-60
2023/09/12 10:17:02;;;;;;;;;;;;;;;24.31;54.33;101113.25;4215655;27;20032;-60
2023/09/12 10:19:10;;;;;;;;;;;;;;;24.28;54.10;101116.19;4215127;27;19923;-63
2023/09/12 10:21:15;;;;;;;;;;;;;;;24.26;54.43;101115.50;4261109;27;19948;-65
2023/09/12 10:23:19;;;;;;;;;;;;;;;24.24;54.62;101113.78;4207437;27;20373;-63
2023/09/12 10:25:21;;;;;;;;;;;;;;;24.23;54.62;101113.94;4243152;27;19928;-61
2023/09/12 10:27:24;;;;;;;;;;;;;;;24.22;54.44;101123.81;4194155;28;20015;-64
2023/09/12 10:29:26;;;;;;;;;;;;;;;24.25;54.58;101117.31;4212724;27;20009;-59